createdAt,value
2018-06-08T00:00:08.344Z,67.50
2018-06-08T00:01:11.003Z,67.50
2018-06-08T00:02:11.741Z,67.70
2018-06-08T00:03:08.785Z,67.80
2018-06-08T00:04:06.511Z,67.80
2018-06-08T00:05:11.218Z,67.60
2018-06-08T00:06:05.974Z,67.60
2018-06-08T00:07:08.417Z,68.30
2018-06-08T00:08:06.028Z,68.40
2018-06-08T00:09:10.706Z,68.30
2018-06-08T00:10:06.281Z,68.20
2018-06-08T00:11:07.304Z,68.40
2018-06-08T00:12:10.879Z,68.30
2018-06-08T00:13:06.470Z,68.40
2018-06-08T00:14:06.605Z,68.30
2018-06-08T00:15:06.408Z,68.20
2018-06-08T00:16:05.991Z,69.20
2018-06-08T00:17:05.991Z,69.10
2018-06-08T00:18:06.206Z,68.90
2018-06-08T00:19:10.991Z,69.40
2018-06-08T00:20:06.260Z,69.40
2018-06-08T00:21:06.216Z,69.70
2018-06-08T00:22:09.573Z,69.60
2018-06-08T00:23:06.528Z,69.60
2018-06-08T00:24:06.185Z,69.40
2018-06-08T00:25:10.949Z,69.30
2018-06-08T00:26:06.554Z,69.30
2018-06-08T00:27:08.678Z,69.90
2018-06-08T00:28:17.583Z,70.20
2018-06-08T00:29:06.121Z,70.20
2018-06-08T00:30:05.812Z,70.00
2018-06-08T00:31:11.476Z,70.10
2018-06-08T00:32:06.474Z,70.10
2018-06-08T00:33:10.523Z,69.90
2018-06-08T00:34:08.710Z,70.10
2018-06-08T00:35:06.789Z,70.00
2018-06-08T00:36:14.737Z,69.90
2018-06-08T00:37:08.781Z,70.00
2018-06-08T00:38:11.357Z,69.80
2018-06-08T00:39:08.527Z,69.70
2018-06-08T00:40:08.700Z,70.20
2018-06-08T00:41:11.218Z,70.00
2018-06-08T00:42:08.170Z,70.10
2018-06-08T00:43:05.837Z,70.10
2018-06-08T00:44:05.940Z,70.10
2018-06-08T00:45:10.839Z,70.20
2018-06-08T00:46:06.963Z,70.20
2018-06-08T00:47:05.811Z,70.10
2018-06-08T00:48:06.432Z,70.20
2018-06-08T00:49:13.764Z,69.90
2018-06-08T00:50:11.346Z,69.90
2018-06-08T00:51:06.002Z,69.70
2018-06-08T00:52:10.579Z,69.60
2018-06-08T00:53:06.225Z,69.60
2018-06-08T00:54:08.345Z,69.60
2018-06-08T00:55:08.274Z,69.70
2018-06-08T00:56:06.278Z,69.80
2018-06-08T00:57:06.462Z,69.90
2018-06-08T00:58:08.578Z,69.90
2018-06-08T00:59:06.621Z,69.70
2018-06-08T01:00:09.014Z,70.30
2018-06-08T01:01:13.494Z,71.00
2018-06-08T01:02:05.928Z,71.00
2018-06-08T01:03:08.416Z,71.60
2018-06-08T01:04:10.867Z,71.80
2018-06-08T01:05:05.724Z,71.80
2018-06-08T01:06:08.188Z,72.40
2018-06-08T01:07:06.123Z,72.40
2018-06-08T01:08:08.332Z,72.40
2018-06-08T01:09:10.989Z,72.20
2018-06-08T01:10:11.349Z,72.70
2018-06-08T01:11:08.470Z,72.80
2018-06-08T01:12:05.972Z,72.80
2018-06-08T01:13:05.976Z,72.90
2018-06-08T01:14:10.942Z,72.90
2018-06-08T01:15:08.988Z,73.20
2018-06-08T01:16:06.239Z,73.20
2018-06-08T01:17:18.965Z,72.80
2018-06-08T01:18:05.652Z,72.70
2018-06-08T01:19:08.048Z,72.90
2018-06-08T01:20:10.583Z,73.00
2018-06-08T01:21:05.841Z,72.90
2018-06-08T01:22:05.627Z,73.00
2018-06-08T01:23:08.219Z,73.00
2018-06-08T01:24:05.785Z,73.00
2018-06-08T01:25:06.410Z,72.90
2018-06-08T01:26:05.439Z,73.00
2018-06-08T01:27:06.219Z,73.00
2018-06-08T01:28:06.388Z,73.10
2018-06-08T01:29:05.944Z,73.20
2018-06-08T01:30:10.690Z,73.30
2018-06-08T01:31:06.860Z,73.30
2018-06-08T01:32:09.091Z,73.60
2018-06-08T01:33:08.080Z,73.50
2018-06-08T01:34:05.651Z,73.50
2018-06-08T01:35:06.048Z,73.70
2018-06-08T01:36:05.667Z,73.50
2018-06-08T01:37:05.708Z,73.40
2018-06-08T01:38:08.373Z,73.70
2018-06-08T01:39:06.004Z,73.80
2018-06-08T01:40:06.071Z,73.80
2018-06-08T01:41:08.609Z,73.70
2018-06-08T01:42:06.339Z,73.70
2018-06-08T01:43:05.987Z,73.50
2018-06-08T01:44:10.657Z,73.30
2018-06-08T01:45:08.679Z,73.40
2018-06-08T01:46:06.817Z,73.50
2018-06-08T01:47:14.510Z,73.40
2018-06-08T01:48:08.247Z,73.20
2018-06-08T01:49:05.864Z,73.20
2018-06-08T01:50:06.242Z,73.00
2018-06-08T01:51:08.314Z,72.80
2018-06-08T01:52:05.810Z,72.80
2018-06-08T01:53:06.435Z,72.80
2018-06-08T01:54:06.079Z,72.90
2018-06-08T01:55:10.854Z,72.70
2018-06-08T01:56:14.129Z,72.60
2018-06-08T01:57:05.724Z,72.70
2018-06-08T01:58:06.956Z,72.80
2018-06-08T01:59:06.202Z,73.60
2018-06-08T02:00:06.013Z,73.70
2018-06-08T02:01:06.101Z,74.00
2018-06-08T02:02:09.138Z,74.20
2018-06-08T02:03:05.644Z,74.30
2018-06-08T02:04:08.975Z,74.40
2018-06-08T02:05:06.866Z,74.40
2018-06-08T02:06:07.576Z,74.80
2018-06-08T02:07:06.590Z,74.90
2018-06-08T02:08:06.812Z,74.80
2018-06-08T02:09:06.085Z,74.80
2018-06-08T02:10:05.766Z,75.10
2018-06-08T02:11:06.374Z,75.20
2018-06-08T02:12:08.613Z,74.90
2018-06-08T02:13:08.822Z,74.90
2018-06-08T02:14:11.407Z,74.80
2018-06-08T02:15:05.828Z,74.80
2018-06-08T02:16:06.300Z,75.00
2018-06-08T02:17:11.210Z,75.20
2018-06-08T02:18:05.999Z,75.20
2018-06-08T02:19:08.188Z,75.20
2018-06-08T02:20:13.393Z,75.50
2018-06-08T02:21:10.891Z,75.50
2018-06-08T02:22:12.331Z,75.50
2018-06-08T02:23:06.219Z,75.60
2018-06-08T02:24:05.906Z,75.50
2018-06-08T02:25:05.724Z,75.40
2018-06-08T02:26:06.528Z,75.60
2018-06-08T02:27:08.701Z,75.70
2018-06-08T02:28:06.186Z,75.60
2018-06-08T02:29:07.002Z,75.30
2018-06-08T02:30:06.230Z,75.50
2018-06-08T02:31:10.921Z,76.10
2018-06-08T02:32:11.444Z,76.10
2018-06-08T02:33:06.051Z,76.20
2018-06-08T02:34:05.817Z,76.10
2018-06-08T02:35:13.428Z,76.40
2018-06-08T02:36:05.919Z,76.40
2018-06-08T02:37:06.513Z,76.40
2018-06-08T02:38:10.699Z,76.30
2018-06-08T02:39:06.389Z,76.30
2018-06-08T02:40:11.143Z,76.20
2018-06-08T02:41:10.692Z,76.00
2018-06-08T02:42:06.299Z,76.00
2018-06-08T02:43:05.853Z,76.00
2018-06-08T02:44:11.135Z,75.70
2018-06-08T02:45:08.396Z,75.50
2018-06-08T02:46:08.393Z,75.60
2018-06-08T02:47:06.237Z,75.60
2018-06-08T02:48:06.745Z,75.70
2018-06-08T02:49:09.762Z,76.40
2018-06-08T02:50:06.345Z,76.40
2018-06-08T02:51:06.457Z,76.20
2018-06-08T02:52:05.710Z,76.10
2018-06-08T02:53:06.703Z,76.30
2018-06-08T02:54:06.071Z,76.60
2018-06-08T02:55:06.132Z,76.70
2018-06-08T02:56:05.807Z,76.90
2018-06-08T02:57:06.286Z,77.40
2018-06-08T02:58:11.057Z,77.60
2018-06-08T02:59:10.748Z,77.40
2018-06-08T03:00:06.348Z,77.30
2018-06-08T03:01:08.626Z,77.10
2018-06-08T03:02:08.745Z,77.10
2018-06-08T03:03:06.304Z,76.90
2018-06-08T03:04:08.527Z,77.30
2018-06-08T03:05:11.110Z,77.50
2018-06-08T03:06:05.923Z,77.50
2018-06-08T03:07:09.046Z,77.60
2018-06-08T03:08:08.207Z,77.20
2018-06-08T03:09:05.794Z,77.10
2018-06-08T03:10:10.491Z,76.70
2018-06-08T03:11:08.513Z,76.50
2018-06-08T03:12:06.040Z,76.50
2018-06-08T03:13:06.094Z,76.40
2018-06-08T03:14:08.234Z,76.90
2018-06-08T03:15:10.857Z,76.70
2018-06-08T03:16:11.167Z,76.60
2018-06-08T03:17:10.881Z,76.30
2018-06-08T03:18:11.457Z,76.30
2018-06-08T03:19:06.380Z,76.30
2018-06-08T03:20:06.502Z,76.30
2018-06-08T03:21:06.544Z,76.20
2018-06-08T03:22:08.596Z,76.40
2018-06-08T03:23:06.221Z,76.40
2018-06-08T03:24:06.376Z,76.10
2018-06-08T03:25:08.590Z,76.70
2018-06-08T03:26:06.158Z,76.60
2018-06-08T03:27:08.474Z,76.60
2018-06-08T03:28:06.010Z,76.70
2018-06-08T03:29:08.644Z,76.70
2018-06-08T03:30:11.136Z,76.50
2018-06-08T03:31:05.809Z,76.50
2018-06-08T03:32:08.793Z,76.20
2018-06-08T03:33:06.343Z,76.30
2018-06-08T03:34:06.554Z,76.40
2018-06-08T03:35:11.211Z,76.30
2018-06-08T03:36:06.237Z,76.30
2018-06-08T03:37:10.955Z,77.40
2018-06-08T03:38:06.516Z,77.40
2018-06-08T03:39:11.135Z,77.70
2018-06-08T03:40:05.982Z,77.70
2018-06-08T03:41:10.783Z,77.70
2018-06-08T03:42:06.364Z,77.70
2018-06-08T03:43:06.159Z,77.60
2018-06-08T03:44:06.367Z,77.40
2018-06-08T03:45:06.484Z,77.30
2018-06-08T03:46:06.359Z,77.20
2018-06-08T03:47:11.081Z,77.10
2018-06-08T03:48:10.604Z,77.30
2018-06-08T03:49:08.554Z,77.20
2018-06-08T03:50:05.963Z,77.20
2018-06-08T03:51:10.974Z,77.10
2018-06-08T03:52:07.003Z,77.00
2018-06-08T03:53:06.233Z,77.10
2018-06-08T03:54:11.019Z,76.70
2018-06-08T03:55:05.693Z,76.70
2018-06-08T03:56:05.645Z,76.40
2018-06-08T03:57:08.338Z,76.00
2018-06-08T03:58:05.888Z,76.00
2018-06-08T03:59:08.000Z,75.50
2018-06-08T04:00:06.542Z,75.50
2018-06-08T04:01:09.675Z,75.20
2018-06-08T04:02:08.847Z,75.00
2018-06-08T04:03:06.320Z,75.00
2018-06-08T04:04:06.407Z,74.80
2018-06-08T04:05:06.193Z,74.60
2018-06-08T04:06:05.833Z,74.30
2018-06-08T04:07:05.959Z,74.10
2018-06-08T04:08:05.976Z,73.80
2018-06-08T04:09:08.177Z,73.10
2018-06-08T04:10:08.436Z,73.00
2018-06-08T04:11:09.579Z,72.50
2018-06-08T04:12:06.426Z,72.50
2018-06-08T04:13:06.455Z,72.20
2018-06-08T04:14:05.520Z,71.70
2018-06-08T04:15:05.806Z,71.40
2018-06-08T04:16:11.497Z,71.10
2018-06-08T04:17:11.459Z,70.90
2018-06-08T04:18:05.832Z,70.60
2018-06-08T04:19:06.546Z,69.70
2018-06-08T04:20:05.654Z,69.40
2018-06-08T04:21:11.267Z,69.10
2018-06-08T04:22:06.212Z,68.70
2018-06-08T04:23:05.969Z,68.00
2018-06-08T04:24:05.749Z,68.00
2018-06-08T04:25:06.465Z,67.90
2018-06-08T04:26:05.864Z,67.00
2018-06-08T04:27:10.575Z,66.60
2018-06-08T04:28:11.260Z,65.60
2018-06-08T04:29:11.439Z,65.60
2018-06-08T04:30:05.864Z,65.60
2018-06-08T04:31:05.434Z,65.50
2018-06-08T04:32:05.741Z,65.50
2018-06-08T04:33:11.005Z,64.90
2018-06-08T04:34:05.801Z,64.90
2018-06-08T04:35:05.944Z,64.70
2018-06-08T04:36:05.677Z,64.40
2018-06-08T04:37:18.358Z,63.50
2018-06-08T04:38:08.557Z,63.30
2018-06-08T04:39:06.330Z,63.20
2018-06-08T04:40:14.158Z,62.50
2018-06-08T04:41:10.766Z,61.70
2018-06-08T04:42:06.028Z,61.70
2018-06-08T04:43:05.869Z,61.10
2018-06-08T04:44:05.812Z,61.00
2018-06-08T04:45:06.487Z,60.30
2018-06-08T04:46:10.750Z,59.60
2018-06-08T04:47:06.502Z,59.60
2018-06-08T04:48:06.133Z,59.30
2018-06-08T04:49:06.252Z,59.00
2018-06-08T04:50:10.905Z,58.40
2018-06-08T04:51:11.434Z,58.40
2018-06-08T04:52:06.495Z,57.90
2018-06-08T04:53:11.361Z,58.10
2018-06-08T04:54:05.836Z,57.60
2018-06-08T04:55:05.489Z,57.10
2018-06-08T04:56:06.308Z,57.10
2018-06-08T04:57:06.490Z,56.70
2018-06-08T04:58:08.717Z,56.00
2018-06-08T04:59:06.704Z,56.00
2018-06-08T05:00:05.784Z,55.80
2018-06-08T05:01:10.642Z,55.50
2018-06-08T05:02:17.039Z,55.50
2018-06-08T05:03:06.151Z,55.40
2018-06-08T05:04:09.105Z,54.80
2018-06-08T05:05:05.722Z,54.70
2018-06-08T05:06:06.922Z,54.60
2018-06-08T05:07:05.571Z,54.40
2018-06-08T05:08:05.623Z,54.20
2018-06-08T05:09:05.618Z,54.10
2018-06-08T05:10:06.843Z,54.00
2018-06-08T05:11:05.862Z,53.20
2018-06-08T05:12:06.967Z,52.90
2018-06-08T05:13:11.171Z,52.20
2018-06-08T05:14:08.721Z,51.70
2018-06-08T05:15:11.301Z,51.60
2018-06-08T05:16:10.785Z,51.90
2018-06-08T05:17:06.768Z,51.90
2018-06-08T05:18:06.454Z,51.70
2018-06-08T05:19:06.429Z,51.50
2018-06-08T05:20:06.146Z,51.40
2018-06-08T05:21:08.525Z,50.80
2018-06-08T05:22:06.049Z,50.80
2018-06-08T05:23:08.551Z,50.40
2018-06-08T05:24:11.007Z,50.40
2018-06-08T05:25:08.765Z,50.10
2018-06-08T05:26:06.647Z,50.00
2018-06-08T05:27:06.596Z,49.80
2018-06-08T05:28:06.707Z,49.30
2018-06-08T05:29:06.699Z,49.10
2018-06-08T05:30:06.504Z,48.70
2018-06-08T05:31:06.026Z,48.90
2018-06-08T05:32:10.794Z,48.30
2018-06-08T05:33:06.253Z,48.30
2018-06-08T05:34:06.275Z,48.40
2018-06-08T05:35:08.435Z,48.10
2018-06-08T05:36:11.061Z,48.10
2018-06-08T05:37:05.574Z,48.10
2018-06-08T05:38:06.305Z,47.80
2018-06-08T05:39:09.603Z,47.30
2018-06-08T05:40:06.316Z,47.30
2018-06-08T05:41:05.979Z,47.10
2018-06-08T05:42:10.652Z,47.10
2018-06-08T05:43:12.095Z,46.70
2018-06-08T05:44:05.990Z,46.50
2018-06-08T05:45:05.573Z,46.40
2018-06-08T05:46:08.675Z,45.90
2018-06-08T05:47:06.668Z,45.90
2018-06-08T05:48:08.470Z,45.50
2018-06-08T05:49:11.115Z,45.30
2018-06-08T05:50:08.465Z,45.30
2018-06-08T05:51:06.331Z,45.30
2018-06-08T05:52:11.125Z,45.40
2018-06-08T05:53:06.520Z,45.40
2018-06-08T05:54:06.292Z,45.50
2018-06-08T05:55:08.557Z,45.30
2018-06-08T05:56:06.241Z,45.20
2018-06-08T05:57:05.849Z,45.20
2018-06-08T05:58:09.090Z,44.70
2018-06-08T05:59:06.704Z,44.70
2018-06-08T06:00:06.826Z,44.70
2018-06-08T06:01:08.063Z,45.60
2018-06-08T06:02:10.677Z,45.70
2018-06-08T06:03:11.232Z,45.70
2018-06-08T06:04:05.723Z,45.70
2018-06-08T06:05:08.421Z,45.50
2018-06-08T06:06:11.006Z,45.20
2018-06-08T06:07:13.679Z,44.80
2018-06-08T06:08:06.430Z,44.70
2018-06-08T06:09:06.040Z,44.70
2018-06-08T06:10:08.564Z,44.40
2018-06-08T06:11:10.862Z,44.70
2018-06-08T06:12:06.539Z,44.70
2018-06-08T06:13:06.552Z,45.10
2018-06-08T06:14:06.202Z,44.70
2018-06-08T06:15:06.368Z,44.10
2018-06-08T06:16:06.055Z,43.80
2018-06-08T06:17:10.814Z,43.60
2018-06-08T06:18:06.376Z,42.80
2018-06-08T06:19:06.210Z,42.90
2018-06-08T06:20:06.351Z,43.20
2018-06-08T06:21:11.100Z,42.60
2018-06-08T06:22:05.622Z,42.50
2018-06-08T06:23:05.580Z,42.30
2018-06-08T06:24:05.744Z,42.60
2018-06-08T06:25:06.314Z,42.40
2018-06-08T06:26:06.037Z,42.30
2018-06-08T06:27:05.739Z,42.80
2018-06-08T06:28:08.238Z,42.80
2018-06-08T06:29:10.981Z,42.80
2018-06-08T06:30:06.476Z,42.80
2018-06-08T06:31:11.275Z,42.80
2018-06-08T06:32:06.189Z,42.80
2018-06-08T06:33:11.099Z,42.40
2018-06-08T06:34:10.640Z,42.40
2018-06-08T06:35:06.095Z,42.20
2018-06-08T06:36:08.550Z,41.80
2018-06-08T06:37:06.318Z,41.70
2018-06-08T06:38:11.154Z,41.20
2018-06-08T06:39:06.053Z,41.20
2018-06-08T06:40:05.756Z,41.30
2018-06-08T06:41:10.721Z,41.60
2018-06-08T06:42:11.164Z,41.60
2018-06-08T06:43:10.592Z,41.60
2018-06-08T06:44:08.688Z,41.20
2018-06-08T06:45:11.322Z,41.10
2018-06-08T06:46:08.501Z,40.20
2018-06-08T06:47:11.016Z,40.20
2018-06-08T06:48:06.306Z,40.30
2018-06-08T06:49:06.158Z,40.60
2018-06-08T06:50:08.443Z,40.40
2018-06-08T06:51:06.010Z,40.40
2018-06-08T06:52:05.934Z,40.50
2018-06-08T06:53:05.753Z,40.70
2018-06-08T06:54:05.881Z,40.90
2018-06-08T06:55:08.031Z,40.70
2018-06-08T06:56:08.843Z,40.40
2018-06-08T06:57:06.459Z,40.40
2018-06-08T06:58:07.175Z,40.10
2018-06-08T06:59:06.165Z,39.50
2018-06-08T07:00:05.815Z,39.40
2018-06-08T07:01:05.698Z,39.10
2018-06-08T07:02:06.048Z,39.20
2018-06-08T07:03:08.187Z,38.20
2018-06-08T07:04:10.777Z,38.20
2018-06-08T07:05:06.891Z,38.20
2018-06-08T07:06:08.262Z,38.50
2018-06-08T07:07:10.877Z,38.50
2018-06-08T07:08:06.458Z,38.40
2018-06-08T07:09:06.233Z,38.70
2018-06-08T07:10:06.298Z,38.40
2018-06-08T07:11:05.926Z,39.00
2018-06-08T07:12:08.660Z,39.40
2018-06-08T07:13:06.166Z,39.40
2018-06-08T07:14:08.387Z,39.40
2018-06-08T07:15:06.249Z,39.30
2018-06-08T07:16:06.268Z,39.00
2018-06-08T07:17:06.588Z,38.60
2018-06-08T07:18:06.553Z,38.50
2018-06-08T07:19:08.799Z,38.10
2018-06-08T07:20:05.693Z,38.10
2018-06-08T07:21:06.467Z,37.60
2018-06-08T07:22:06.059Z,36.80
2018-06-08T07:23:05.614Z,36.70
2018-06-08T07:24:05.955Z,36.70
2018-06-08T07:25:06.627Z,36.50
2018-06-08T07:26:08.920Z,37.20
2018-06-08T07:27:08.942Z,37.50
2018-06-08T07:28:06.901Z,37.60
2018-06-08T07:29:10.614Z,37.40
2018-06-08T07:30:06.178Z,37.60
2018-06-08T07:31:05.879Z,37.70
2018-06-08T07:32:06.974Z,38.00
2018-06-08T07:33:06.029Z,37.90
2018-06-08T07:34:05.892Z,37.70
2018-06-08T07:35:05.591Z,37.60
2018-06-08T07:36:05.522Z,36.00
2018-06-08T07:37:05.501Z,36.80
2018-06-08T07:38:05.848Z,37.50
2018-06-08T07:39:14.113Z,38.10
2018-06-08T07:40:10.946Z,38.10
2018-06-08T07:41:10.751Z,37.70
2018-06-08T07:42:08.923Z,37.30
2018-06-08T07:43:06.426Z,37.20
2018-06-08T07:44:05.552Z,37.20
2018-06-08T07:45:06.141Z,36.50
2018-06-08T07:46:05.707Z,36.40
2018-06-08T07:47:11.468Z,37.00
2018-06-08T07:48:08.601Z,38.00
2018-06-08T07:49:06.236Z,38.20
2018-06-08T07:50:05.953Z,38.30
2018-06-08T07:51:06.034Z,38.50
2018-06-08T07:52:06.345Z,38.30
2018-06-08T07:53:08.456Z,38.40
2018-06-08T07:54:06.460Z,38.20
2018-06-08T07:55:05.565Z,37.80
2018-06-08T07:56:05.790Z,37.70
2018-06-08T07:57:05.806Z,37.70
2018-06-08T07:58:11.422Z,37.40
2018-06-08T07:59:07.010Z,36.80
2018-06-08T08:00:10.742Z,37.70
2018-06-08T08:01:07.272Z,37.70
2018-06-08T08:02:06.020Z,37.70
2018-06-08T08:03:06.017Z,37.70
2018-06-08T08:04:05.764Z,36.90
2018-06-08T08:05:11.474Z,36.50
2018-06-08T08:06:11.292Z,36.60
2018-06-08T08:07:05.829Z,36.60
2018-06-08T08:08:08.448Z,36.60
2018-06-08T08:09:11.309Z,36.10
2018-06-08T08:10:05.905Z,36.10
2018-06-08T08:11:05.873Z,36.30
2018-06-08T08:12:06.363Z,35.20
2018-06-08T08:13:06.467Z,34.30
2018-06-08T08:14:13.240Z,33.70
2018-06-08T08:15:05.741Z,33.80
2018-06-08T08:16:05.909Z,34.20
2018-06-08T08:17:08.113Z,33.20
2018-06-08T08:18:05.803Z,33.20
2018-06-08T08:19:10.727Z,33.60
2018-06-08T08:20:06.277Z,34.20
2018-06-08T08:21:05.959Z,34.70
2018-06-08T08:22:05.579Z,34.40
2018-06-08T08:23:11.443Z,34.60
2018-06-08T08:24:05.958Z,35.10
2018-06-08T08:25:11.346Z,35.20
2018-06-08T08:26:05.895Z,34.30
2018-06-08T08:27:06.286Z,34.50
2018-06-08T08:28:10.656Z,34.40
2018-06-08T08:29:06.470Z,34.00
2018-06-08T08:30:06.342Z,34.40
2018-06-08T08:31:06.167Z,34.60
2018-06-08T08:32:08.473Z,35.00
2018-06-08T08:33:11.137Z,35.30
2018-06-08T08:34:10.906Z,36.00
2018-06-08T08:35:10.670Z,35.90
2018-06-08T08:36:11.145Z,34.00
2018-06-08T08:37:10.898Z,34.50
2018-06-08T08:38:06.374Z,34.50
2018-06-08T08:39:06.147Z,34.20
2018-06-08T08:40:08.548Z,34.30
2018-06-08T08:41:10.808Z,34.50
2018-06-08T08:42:08.948Z,33.00
2018-06-08T08:43:06.729Z,33.00
2018-06-08T08:44:06.600Z,33.50
2018-06-08T08:45:08.790Z,34.70
2018-06-08T08:46:08.778Z,34.80
2018-06-08T08:47:08.835Z,34.90
2018-06-08T08:48:08.909Z,33.00
2018-06-08T08:49:08.965Z,32.90
2018-06-08T08:50:08.950Z,32.70
2018-06-08T08:51:11.480Z,32.80
2018-06-08T08:52:11.253Z,32.50
2018-06-08T08:53:05.673Z,30.30
2018-06-08T08:54:08.026Z,30.90
2018-06-08T08:55:08.115Z,31.00
2018-06-08T08:56:05.779Z,31.00
2018-06-08T08:57:06.519Z,31.90
2018-06-08T08:58:11.225Z,32.50
2018-06-08T08:59:06.427Z,33.30
2018-06-08T09:00:06.311Z,32.70
2018-06-08T09:01:06.102Z,32.00
2018-06-08T09:02:05.800Z,31.60
2018-06-08T09:03:08.462Z,29.30
2018-06-08T09:04:05.663Z,29.20
2018-06-08T09:05:06.086Z,29.50
2018-06-08T09:06:10.772Z,31.00
2018-06-08T09:07:05.931Z,31.10
2018-06-08T09:08:06.203Z,32.20
2018-06-08T09:09:10.905Z,32.00
2018-06-08T09:10:06.703Z,32.10
2018-06-08T09:11:06.395Z,31.60
2018-06-08T09:12:11.282Z,33.30
2018-06-08T09:13:08.949Z,33.10
2018-06-08T09:14:06.258Z,33.10
2018-06-08T09:15:10.820Z,33.20
2018-06-08T09:16:06.523Z,33.20
2018-06-08T09:17:11.554Z,33.20
2018-06-08T09:18:06.417Z,32.70
2018-06-08T09:19:08.353Z,32.20
2018-06-08T09:20:05.908Z,32.20
2018-06-08T09:21:08.117Z,32.50
2018-06-08T09:22:06.243Z,32.50
2018-06-08T09:23:05.863Z,32.40
2018-06-08T09:24:05.915Z,31.90
2018-06-08T09:25:08.049Z,30.20
2018-06-08T09:26:06.182Z,30.20
2018-06-08T09:27:06.481Z,29.80
2018-06-08T09:28:11.248Z,27.50
2018-06-08T09:29:10.725Z,27.80
2018-06-08T09:30:08.639Z,27.40
2018-06-08T09:31:06.146Z,27.40
2018-06-08T09:32:10.797Z,27.80
2018-06-08T09:33:06.422Z,27.80
2018-06-08T09:34:08.713Z,28.20
2018-06-08T09:35:11.282Z,28.20
2018-06-08T09:36:06.406Z,27.90
2018-06-08T09:37:11.112Z,28.60
2018-06-08T09:38:05.899Z,28.80
2018-06-08T09:39:08.531Z,29.80
2018-06-08T09:40:06.052Z,29.80
2018-06-08T09:41:06.134Z,28.80
2018-06-08T09:42:10.938Z,28.30
2018-06-08T09:43:05.921Z,28.40
2018-06-08T09:44:05.959Z,28.30
2018-06-08T09:45:11.004Z,28.40
2018-06-08T09:46:08.196Z,29.30
2018-06-08T09:47:05.926Z,29.30
2018-06-08T09:48:05.991Z,29.00
2018-06-08T09:49:05.891Z,28.50
2018-06-08T09:50:06.197Z,29.10
2018-06-08T09:51:06.056Z,28.40
2018-06-08T09:52:10.930Z,29.10
2018-06-08T09:53:11.616Z,28.40
2018-06-08T09:54:11.237Z,28.20
2018-06-08T09:55:10.824Z,28.50
2018-06-08T09:56:06.896Z,28.40
2018-06-08T09:57:08.116Z,28.20
2018-06-08T09:58:05.719Z,27.80
2018-06-08T09:59:10.730Z,28.20
2018-06-08T10:00:06.785Z,28.20
2018-06-08T10:01:06.432Z,27.40
2018-06-08T10:02:07.152Z,27.70
2018-06-08T10:03:08.389Z,28.20
2018-06-08T10:04:08.395Z,28.10
2018-06-08T10:05:05.850Z,28.10
2018-06-08T10:06:11.038Z,28.20
2018-06-08T10:07:08.192Z,28.80
2018-06-08T10:08:10.768Z,28.20
2018-06-08T10:09:08.928Z,28.20
2018-06-08T10:10:06.091Z,28.20
2018-06-08T10:11:06.060Z,28.50
2018-06-08T10:12:06.092Z,28.10
2018-06-08T10:13:06.131Z,28.40
2018-06-08T10:14:08.546Z,27.90
2018-06-08T10:15:06.649Z,27.90
2018-06-08T10:16:06.648Z,28.00
2018-06-08T10:17:09.028Z,28.00
2018-06-08T10:18:15.800Z,27.50
2018-06-08T10:19:06.391Z,27.60
2018-06-08T10:20:06.394Z,28.30
2018-06-08T10:21:08.609Z,27.90
2018-06-08T10:22:08.662Z,28.00
2018-06-08T10:23:06.189Z,28.00
2018-06-08T10:24:08.402Z,27.70
2018-06-08T10:25:05.974Z,27.60
2018-06-08T10:26:05.916Z,28.10
2018-06-08T10:27:05.687Z,27.10
2018-06-08T10:28:06.168Z,27.60
2018-06-08T10:29:08.314Z,28.60
2018-06-08T10:30:05.946Z,28.70
2018-06-08T10:31:06.136Z,28.40
2018-06-08T10:32:05.965Z,27.10
2018-06-08T10:33:05.831Z,26.90
2018-06-08T10:34:06.038Z,27.00
2018-06-08T10:35:10.813Z,26.30
2018-06-08T10:36:06.738Z,25.90
2018-06-08T10:37:06.855Z,24.70
2018-06-08T10:38:08.116Z,24.30
2018-06-08T10:39:05.966Z,24.40
2018-06-08T10:40:08.181Z,24.10
2018-06-08T10:41:10.763Z,24.20
2018-06-08T10:42:06.335Z,24.20
2018-06-08T10:43:06.680Z,24.30
2018-06-08T10:44:13.789Z,23.70
2018-06-08T10:45:06.660Z,23.70
2018-06-08T10:46:06.430Z,24.20
2018-06-08T10:47:06.080Z,23.40
2018-06-08T10:48:08.147Z,23.00
2018-06-08T10:49:08.303Z,24.20
2018-06-08T10:50:08.445Z,24.50
2018-06-08T10:51:11.183Z,24.20
2018-06-08T10:52:05.866Z,24.00
2018-06-08T10:53:08.091Z,23.90
2018-06-08T10:54:05.993Z,23.90
2018-06-08T10:55:08.149Z,23.60
2018-06-08T10:56:08.758Z,22.70
2018-06-08T10:57:06.317Z,22.60
2018-06-08T10:58:08.722Z,23.00
2018-06-08T10:59:11.359Z,23.00
2018-06-08T11:00:06.257Z,22.40
2018-06-08T11:01:05.853Z,23.70
2018-06-08T11:02:05.676Z,23.60
2018-06-08T11:03:05.927Z,24.10
2018-06-08T11:04:08.268Z,23.90
2018-06-08T11:05:06.846Z,23.90
2018-06-08T11:06:08.015Z,20.80
2018-06-08T11:07:05.538Z,20.70
2018-06-08T11:08:05.505Z,20.70
2018-06-08T11:09:05.783Z,21.70
2018-06-08T11:10:05.750Z,20.90
2018-06-08T11:11:05.796Z,21.40
2018-06-08T11:12:06.929Z,21.10
2018-06-08T11:13:06.201Z,21.30
2018-06-08T11:14:05.921Z,21.90
2018-06-08T11:15:10.739Z,20.30
2018-06-08T11:16:07.568Z,20.30
2018-06-08T11:17:11.339Z,20.20
2018-06-08T11:18:05.949Z,20.80
2018-06-08T11:19:05.892Z,21.40
2018-06-08T11:20:08.110Z,21.50
2018-06-08T11:21:05.720Z,21.40
2018-06-08T11:22:06.513Z,21.90
2018-06-08T11:23:06.191Z,21.80
2018-06-08T11:24:09.587Z,22.10
2018-06-08T11:25:06.315Z,22.10
2018-06-08T11:26:06.008Z,22.10
2018-06-08T11:27:08.307Z,21.10
2018-06-08T11:28:06.020Z,21.10
2018-06-08T11:29:05.757Z,21.00
2018-06-08T11:30:08.996Z,22.20
2018-06-08T11:31:06.003Z,22.20
2018-06-08T11:32:05.579Z,21.20
2018-06-08T11:33:06.139Z,20.60
2018-06-08T11:34:08.451Z,21.70
2018-06-08T11:35:06.366Z,21.70
2018-06-08T11:36:11.034Z,21.40
2018-06-08T11:37:06.541Z,21.20
2018-06-08T11:38:09.227Z,21.00
2018-06-08T11:39:05.899Z,21.00
2018-06-08T11:40:08.555Z,20.30
2018-06-08T11:41:06.236Z,20.20
2018-06-08T11:42:08.401Z,22.40
2018-06-08T11:43:06.098Z,22.40
2018-06-08T11:44:11.094Z,22.10
2018-06-08T11:45:08.608Z,20.20
2018-06-08T11:46:05.642Z,20.20
2018-06-08T11:47:08.872Z,21.70
2018-06-08T11:48:07.616Z,21.70
2018-06-08T11:49:06.656Z,20.50
2018-06-08T11:50:06.419Z,20.70
2018-06-08T11:51:06.045Z,20.90
2018-06-08T11:52:06.085Z,21.80
2018-06-08T11:53:06.330Z,22.00
2018-06-08T11:54:10.994Z,19.90
2018-06-08T11:55:05.766Z,19.90
2018-06-08T11:56:06.903Z,19.20
2018-06-08T11:57:10.635Z,20.30
2018-06-08T11:58:08.663Z,20.80
2018-06-08T11:59:08.831Z,21.80
2018-06-08T12:00:06.736Z,21.80
2018-06-08T12:01:11.430Z,22.60
2018-06-08T12:02:06.330Z,22.60
2018-06-08T12:03:08.410Z,22.00
2018-06-08T12:04:06.068Z,22.00
2018-06-08T12:05:06.411Z,22.50
2018-06-08T12:06:06.148Z,23.00
2018-06-08T12:07:16.140Z,22.80
2018-06-08T12:08:05.681Z,22.80
2018-06-08T12:09:08.618Z,23.70
2018-06-08T12:10:06.294Z,23.80
2018-06-08T12:11:08.659Z,23.40
2018-06-08T12:12:08.669Z,23.30
2018-06-08T12:13:06.268Z,23.20
2018-06-08T12:14:10.988Z,23.30
2018-06-08T12:15:08.682Z,23.50
2018-06-08T12:16:09.190Z,24.20
2018-06-08T12:17:06.813Z,24.20
2018-06-08T12:18:05.990Z,24.30
2018-06-08T12:19:06.171Z,24.10
2018-06-08T12:20:11.412Z,24.40
2018-06-08T12:21:13.525Z,23.60
2018-06-08T12:22:06.443Z,23.60
2018-06-08T12:23:05.664Z,23.70
2018-06-08T12:24:05.884Z,23.70
2018-06-08T12:25:05.729Z,23.60
2018-06-08T12:26:06.601Z,24.50
2018-06-08T12:27:05.889Z,24.10
2018-06-08T12:28:05.668Z,23.50
2018-06-08T12:29:08.884Z,22.60
2018-06-08T12:30:11.328Z,22.10
2018-06-08T12:31:06.144Z,22.20
2018-06-08T12:32:05.777Z,22.80
2018-06-08T12:33:06.074Z,22.50
2018-06-08T12:34:06.069Z,22.90
2018-06-08T12:35:05.999Z,20.70
2018-06-08T12:36:09.030Z,21.50
2018-06-08T12:37:06.022Z,21.50
2018-06-08T12:38:06.285Z,21.80
2018-06-08T12:39:08.488Z,22.30
2018-06-08T12:40:06.100Z,22.30
2018-06-08T12:41:05.738Z,21.80
2018-06-08T12:42:05.832Z,20.30
2018-06-08T12:43:06.169Z,20.20
2018-06-08T12:44:05.809Z,21.00
2018-06-08T12:45:08.292Z,22.50
2018-06-08T12:46:05.824Z,22.50
2018-06-08T12:47:13.203Z,21.80
2018-06-08T12:48:06.024Z,21.80
2018-06-08T12:49:08.189Z,21.00
2018-06-08T12:50:06.197Z,21.10
2018-06-08T12:51:06.254Z,20.20
2018-06-08T12:52:05.890Z,20.50